createdAt,value
2022-10-11T03:54:24.019Z,8.89
2022-10-11T03:57:50.880Z,8.81
2022-10-11T04:01:17.594Z,8.71
2022-10-11T04:04:44.106Z,8.63
2022-10-11T04:08:12.294Z,8.54
2022-10-11T04:11:39.732Z,8.45
2022-10-11T04:15:07.896Z,8.37
2022-10-11T04:18:34.603Z,8.29
2022-10-11T04:22:01.242Z,8.22
2022-10-11T04:25:27.761Z,8.15
2022-10-11T04:28:54.944Z,8.09
2022-10-11T04:32:21.729Z,8.03
2022-10-11T04:35:48.901Z,7.97
2022-10-11T04:39:15.874Z,7.91
2022-10-11T04:42:43.034Z,7.85
2022-10-11T04:46:11.198Z,7.80
2022-10-11T04:49:38.030Z,7.74
2022-10-11T04:53:04.903Z,7.69
2022-10-11T04:56:31.466Z,7.63
2022-10-11T04:59:58.821Z,7.59
2022-10-11T05:03:26.421Z,7.54
2022-10-11T05:06:53.121Z,7.52
2022-10-11T05:10:20.090Z,7.53
2022-10-11T05:13:47.957Z,7.56
2022-10-11T05:17:14.575Z,7.63
2022-10-11T05:20:41.208Z,7.66
2022-10-11T05:24:09.135Z,7.69
2022-10-11T05:27:35.807Z,7.69
2022-10-11T05:31:02.519Z,7.66
2022-10-11T05:34:29.683Z,7.60
2022-10-11T05:37:56.568Z,7.54
2022-10-11T05:41:23.498Z,7.48
2022-10-11T05:44:50.096Z,7.42
2022-10-11T05:48:16.708Z,7.40
2022-10-11T05:51:43.376Z,7.45
2022-10-11T05:55:12.264Z,7.61
2022-10-11T05:58:40.517Z,7.87
2022-10-11T06:02:07.488Z,8.17
2022-10-11T06:05:34.683Z,8.52
2022-10-11T06:09:01.224Z,8.90
2022-10-11T06:12:29.704Z,9.27
2022-10-11T06:15:56.423Z,9.67
2022-10-11T06:19:23.216Z,10.07
2022-10-11T06:22:49.994Z,10.46
2022-10-11T06:26:17.325Z,10.83
2022-10-11T06:29:44.095Z,11.17
2022-10-11T06:33:10.702Z,11.45
2022-10-11T06:36:37.674Z,11.73
2022-10-11T06:40:05.228Z,12.00
2022-10-11T06:43:31.748Z,12.32
2022-10-11T06:46:58.776Z,12.64
2022-10-11T06:50:47.067Z,12.97
2022-10-11T06:54:13.494Z,13.33
2022-10-11T06:57:40.328Z,13.62
2022-10-11T07:01:08.903Z,13.85
2022-10-11T07:04:35.847Z,14.09
2022-10-11T07:08:02.707Z,14.18
2022-10-11T07:11:30.415Z,14.19
2022-10-11T07:14:57.976Z,14.35
2022-10-11T07:18:24.644Z,14.51
2022-10-11T07:21:51.802Z,14.58
2022-10-11T07:25:18.560Z,14.52
2022-10-11T07:28:45.265Z,14.54
2022-10-11T07:32:12.532Z,14.37
2022-10-11T07:35:39.965Z,14.09
2022-10-11T07:39:08.290Z,13.85
2022-10-11T07:42:35.839Z,13.69
2022-10-11T07:46:04.937Z,13.58
2022-10-11T07:49:32.401Z,13.43
2022-10-11T07:52:59.198Z,13.35
2022-10-11T07:56:27.416Z,13.24
2022-10-11T07:59:54.177Z,13.10
2022-10-11T08:03:21.388Z,13.01
2022-10-11T08:06:52.504Z,12.97
2022-10-11T08:10:21.033Z,12.98
2022-10-11T08:13:48.069Z,12.99
2022-10-11T08:17:15.168Z,13.03
2022-10-11T08:20:42.543Z,13.10
2022-10-11T08:24:10.309Z,13.15
2022-10-11T08:27:37.435Z,13.22
2022-10-11T08:31:05.095Z,13.32
2022-10-11T08:34:31.966Z,13.41
2022-10-11T08:37:59.250Z,13.55
2022-10-11T08:41:32.694Z,13.65
2022-10-11T08:45:12.232Z,13.80
2022-10-11T08:48:42.878Z,13.92
2022-10-11T08:52:16.014Z,14.09
2022-10-11T08:55:49.372Z,14.19
2022-10-11T08:59:31.285Z,14.24
2022-10-11T09:03:09.693Z,14.32
2022-10-11T09:06:48.693Z,14.40
2022-10-11T09:10:35.825Z,14.43
2022-10-11T09:14:29.764Z,14.58
2022-10-11T09:18:14.657Z,14.72
2022-10-11T09:21:48.589Z,14.83
2022-10-11T09:25:25.694Z,14.91
2022-10-11T09:29:05.770Z,14.90
2022-10-11T09:32:37.195Z,14.78
2022-10-11T09:36:13.341Z,14.77
2022-10-11T09:39:45.179Z,14.96
2022-10-11T09:43:12.649Z,15.16
2022-10-11T09:46:42.458Z,15.27
2022-10-11T09:50:17.741Z,15.40
2022-10-11T09:53:56.687Z,15.56
2022-10-11T09:57:27.367Z,15.65
2022-10-11T10:01:07.304Z,15.72
2022-10-11T10:04:34.804Z,15.79
2022-10-11T10:08:05.403Z,15.93
2022-10-11T10:11:39.075Z,15.85
2022-10-11T10:15:15.251Z,15.86
2022-10-11T10:18:50.434Z,15.93
2022-10-11T10:22:22.091Z,16.08
2022-10-11T10:25:51.248Z,16.15
2022-10-11T10:29:20.290Z,16.32
2022-10-11T10:32:53.322Z,16.41
2022-10-11T10:36:24.649Z,16.38
2022-10-11T10:39:57.054Z,16.43
2022-10-11T10:43:25.852Z,16.52
2022-10-11T10:47:06.959Z,16.48
2022-10-11T10:50:43.253Z,16.55
2022-10-11T10:54:24.138Z,16.62
2022-10-11T10:58:05.359Z,16.58
2022-10-11T11:01:39.921Z,16.66
2022-10-11T11:05:20.617Z,16.81
2022-10-11T11:09:04.374Z,16.92
2022-10-11T11:12:44.989Z,16.92
2022-10-11T11:16:19.934Z,16.96
2022-10-11T11:20:03.258Z,17.03
2022-10-11T11:23:41.870Z,16.84
2022-10-11T11:27:20.461Z,16.63
2022-10-11T11:30:56.835Z,16.71
2022-10-11T11:34:27.697Z,16.73
2022-10-11T11:38:03.859Z,16.57
2022-10-11T11:41:39.238Z,16.40
2022-10-11T11:45:15.895Z,16.20
2022-10-11T11:48:44.187Z,15.99
2022-10-11T11:52:18.265Z,16.08
2022-10-11T11:55:53.341Z,16.36
2022-10-11T11:59:24.827Z,16.63
2022-10-11T12:02:56.311Z,16.89
2022-10-11T12:06:27.251Z,17.06
2022-10-11T12:10:15.171Z,17.20
2022-10-11T12:13:44.563Z,17.33
2022-10-11T12:17:21.770Z,17.36
2022-10-11T12:21:01.948Z,17.45
2022-10-11T12:24:27.087Z,17.59
2022-10-11T12:27:55.229Z,17.80
2022-10-11T12:31:27.701Z,17.91
2022-10-11T12:35:43.564Z,18.04
2022-10-11T12:39:50.124Z,18.21
2022-10-11T12:43:32.873Z,18.40
2022-10-11T12:47:27.564Z,18.54
2022-10-11T12:51:03.801Z,18.62
2022-10-11T12:55:01.096Z,18.75
2022-10-11T12:58:38.326Z,18.77
2022-10-11T13:02:24.081Z,18.83
2022-10-11T13:05:53.874Z,18.84
2022-10-11T13:09:28.509Z,18.80
2022-10-11T13:12:56.503Z,18.72
2022-10-11T13:16:26.942Z,18.63
2022-10-11T13:20:02.618Z,18.61
2022-10-11T13:23:31.374Z,18.62
2022-10-11T13:26:59.278Z,18.63
2022-10-11T13:30:29.625Z,18.58
2022-10-11T13:33:59.218Z,18.53
2022-10-11T13:37:25.303Z,18.35
2022-10-11T13:40:52.950Z,18.20
2022-10-11T13:44:19.665Z,18.05
2022-10-11T13:47:47.058Z,17.97
2022-10-11T13:51:27.655Z,17.88
2022-10-11T13:55:11.437Z,17.79
2022-10-11T13:58:41.507Z,17.63
2022-10-11T14:02:21.436Z,17.44
2022-10-11T14:05:56.619Z,17.31
2022-10-11T14:09:27.530Z,17.20
2022-10-11T14:13:03.982Z,17.04
2022-10-11T14:16:33.984Z,16.90
2022-10-11T14:20:14.402Z,16.76
2022-10-11T14:23:40.968Z,16.58
2022-10-11T14:27:08.360Z,16.44
2022-10-11T14:30:35.130Z,16.30
2022-10-11T14:34:01.885Z,16.16
2022-10-11T14:37:28.740Z,15.98
2022-10-11T14:40:55.715Z,15.81
2022-10-11T14:44:23.400Z,15.70
2022-10-11T14:47:50.668Z,15.48
2022-10-11T14:51:20.137Z,15.26
2022-10-11T14:54:46.844Z,15.09
2022-10-11T14:58:15.979Z,15.01
2022-10-11T15:01:43.278Z,14.89
2022-10-11T15:05:10.548Z,14.76
2022-10-11T15:08:37.495Z,14.65
2022-10-11T15:12:04.089Z,14.55
2022-10-11T15:15:35.453Z,14.46
2022-10-11T15:19:02.577Z,14.37
2022-10-11T15:22:29.158Z,14.27
2022-10-11T15:25:56.568Z,14.13
2022-10-11T15:29:24.255Z,14.01
2022-10-11T15:32:51.245Z,13.89
2022-10-11T15:36:19.965Z,13.75
2022-10-11T15:39:46.512Z,13.63
2022-10-11T15:43:13.719Z,13.48
2022-10-11T15:46:41.581Z,13.34
2022-10-11T15:50:23.842Z,13.20
2022-10-11T15:53:50.899Z,13.00
2022-10-11T15:57:17.487Z,12.87
2022-10-11T16:00:44.570Z,12.72
2022-10-11T16:04:12.021Z,12.59
2022-10-11T16:07:38.575Z,12.44
2022-10-11T16:11:06.633Z,12.28
2022-10-11T16:14:33.440Z,12.11
2022-10-11T16:17:59.983Z,11.95
2022-10-11T16:21:26.465Z,11.78
2022-10-11T16:24:52.994Z,11.62
2022-10-11T16:28:19.789Z,11.45
2022-10-11T16:31:46.477Z,11.30
2022-10-11T16:35:14.749Z,11.16
2022-10-11T16:38:41.992Z,11.01
2022-10-11T16:42:08.827Z,10.86
2022-10-11T16:45:36.614Z,10.72
2022-10-11T16:49:03.634Z,10.59
2022-10-11T16:52:31.092Z,10.46
2022-10-11T16:55:58.135Z,10.34
2022-10-11T16:59:25.135Z,10.20
2022-10-11T17:02:52.022Z,10.07
2022-10-11T17:06:18.919Z,9.94
2022-10-11T17:09:48.341Z,9.83
2022-10-11T17:13:15.800Z,9.72
2022-10-11T17:16:42.462Z,9.63
2022-10-11T17:20:10.034Z,9.55
2022-10-11T17:23:37.372Z,9.45
2022-10-11T17:27:05.144Z,9.36
2022-10-11T17:30:31.852Z,9.27
2022-10-11T17:34:00.629Z,9.20
2022-10-11T17:37:27.608Z,9.12
2022-10-11T17:41:01.426Z,9.05
2022-10-11T17:44:28.136Z,8.98
2022-10-11T17:47:54.824Z,8.92
2022-10-11T17:51:21.792Z,8.84
2022-10-11T17:54:48.309Z,8.76
2022-10-11T17:58:15.352Z,8.70
2022-10-11T18:01:41.830Z,8.64
2022-10-11T18:05:09.964Z,8.57
2022-10-11T18:08:40.587Z,8.49
2022-10-11T18:12:08.086Z,8.41
2022-10-11T18:15:35.303Z,8.34
2022-10-11T18:19:02.798Z,8.28
2022-10-11T18:22:29.400Z,8.22
2022-10-11T18:25:56.384Z,8.17
2022-10-11T18:29:22.953Z,8.11
2022-10-11T18:32:49.627Z,8.05
2022-10-11T18:36:18.871Z,7.99
2022-10-11T18:39:45.840Z,7.93
2022-10-11T18:43:12.976Z,7.86
2022-10-11T18:46:39.546Z,7.79
2022-10-11T18:50:08.470Z,7.74
2022-10-11T18:53:35.668Z,7.69
2022-10-11T18:57:02.205Z,7.64
2022-10-11T19:00:40.765Z,7.59
2022-10-11T19:04:10.314Z,7.53
2022-10-11T19:07:39.419Z,7.49
2022-10-11T19:11:10.068Z,7.44
2022-10-11T19:14:37.105Z,7.40
2022-10-11T19:18:04.309Z,7.35
2022-10-11T19:21:30.857Z,7.31
2022-10-11T19:24:57.477Z,7.27
2022-10-11T19:28:24.191Z,7.24
2022-10-11T19:31:52.446Z,7.21
2022-10-11T19:35:20.234Z,7.18
2022-10-11T19:38:48.345Z,7.15
2022-10-11T19:42:14.860Z,7.11
2022-10-11T19:45:41.938Z,7.06
2022-10-11T19:49:09.058Z,7.02
2022-10-11T19:52:35.806Z,6.97
2022-10-11T19:56:04.636Z,6.90
2022-10-11T19:59:31.271Z,6.85
2022-10-11T20:02:57.847Z,6.79
2022-10-11T20:06:25.688Z,6.73
2022-10-11T20:09:52.186Z,6.67
2022-10-11T20:13:18.695Z,6.60
2022-10-11T20:16:45.674Z,6.55
2022-10-11T20:20:12.806Z,6.50
2022-10-11T20:23:39.910Z,6.46
2022-10-11T20:27:07.429Z,6.42
2022-10-11T20:30:35.066Z,6.36
2022-10-11T20:34:04.191Z,6.31
2022-10-11T20:37:31.321Z,6.27
2022-10-11T20:40:58.062Z,6.23
2022-10-11T20:44:25.061Z,6.18
2022-10-11T20:47:53.579Z,6.13
2022-10-11T20:51:20.508Z,6.08
2022-10-11T20:54:47.042Z,6.05
2022-10-11T20:58:14.212Z,5.99
2022-10-11T21:01:42.748Z,5.95
2022-10-11T21:05:11.403Z,5.91
2022-10-11T21:08:39.062Z,5.87
2022-10-11T21:12:06.107Z,5.83
2022-10-11T21:15:33.502Z,5.79
2022-10-11T21:19:02.127Z,5.74
2022-10-11T21:22:28.929Z,5.70
2022-10-11T21:25:55.978Z,5.65
2022-10-11T21:29:22.756Z,5.61
2022-10-11T21:32:50.665Z,5.59
2022-10-11T21:36:19.703Z,5.55
2022-10-11T21:39:46.532Z,5.54
2022-10-11T21:43:13.097Z,5.51
2022-10-11T21:47:05.421Z,5.48
2022-10-11T21:50:26.406Z,5.45
2022-10-11T21:53:53.456Z,5.42
2022-10-11T21:57:19.954Z,5.39
2022-10-11T22:00:48.876Z,5.37
2022-10-11T22:04:15.643Z,5.35
2022-10-11T22:07:42.359Z,5.34
2022-10-11T22:11:09.810Z,5.30
2022-10-11T22:14:36.570Z,5.27
2022-10-11T22:18:03.670Z,5.24
2022-10-11T22:21:30.466Z,5.20
2022-10-11T22:24:57.141Z,5.19
2022-10-11T22:28:23.818Z,5.18
2022-10-11T22:31:50.592Z,5.17
2022-10-11T22:35:17.222Z,5.14
2022-10-11T22:38:44.662Z,5.11
2022-10-11T22:42:11.339Z,5.07
2022-10-11T22:45:37.923Z,5.03
2022-10-11T22:49:04.575Z,5.02
